createdAt,value
2022-09-25T00:01:59.766Z,8.92
2022-09-25T00:15:12.652Z,8.92
2022-09-25T00:20:37.202Z,8.92
2022-09-25T00:26:00.486Z,8.90
2022-09-25T00:31:25.022Z,8.89
2022-09-25T00:36:47.259Z,8.89
2022-09-25T00:42:14.100Z,8.91
2022-09-25T00:48:07.079Z,8.76
2022-09-25T00:53:35.080Z,8.80
2022-09-25T00:58:57.081Z,8.85
2022-09-25T01:04:21.306Z,8.83
2022-09-25T01:09:43.759Z,8.65
2022-09-25T01:15:12.119Z,8.78
2022-09-25T01:20:40.084Z,8.81
2022-09-25T01:26:07.637Z,8.78
2022-09-25T01:31:53.060Z,8.74
2022-09-25T01:37:33.339Z,8.61
2022-09-25T01:43:01.884Z,8.59
2022-09-25T01:48:34.359Z,8.43
2022-09-25T01:54:02.820Z,8.49
2022-09-25T01:59:46.417Z,8.49
2022-09-25T02:05:22.877Z,8.47
2022-09-25T02:10:49.677Z,8.44
2022-09-25T02:16:18.556Z,8.48
2022-09-25T02:21:51.000Z,8.46
2022-09-25T02:27:12.681Z,8.48
2022-09-25T02:32:35.020Z,8.48
2022-09-25T02:37:58.739Z,8.05
2022-09-25T02:43:32.899Z,8.53
2022-09-25T02:49:27.113Z,8.52
2022-09-25T02:55:21.619Z,8.47
2022-09-25T03:00:48.529Z,8.52
2022-09-25T03:06:11.412Z,8.54
2022-09-25T03:11:41.367Z,8.53
2022-09-25T03:17:05.337Z,8.53
2022-09-25T03:22:27.375Z,8.44
2022-09-25T03:27:49.750Z,8.58
2022-09-25T03:33:12.817Z,8.49
2022-09-25T03:38:34.963Z,8.65
2022-09-25T03:43:57.887Z,8.55
2022-09-25T03:49:20.191Z,8.66
2022-09-25T03:54:42.009Z,8.57
2022-09-25T04:00:05.280Z,8.70
2022-09-25T04:05:35.668Z,8.61
2022-09-25T04:11:00.145Z,8.72
2022-09-25T04:16:22.466Z,8.70
2022-09-25T04:21:44.347Z,8.74
2022-09-25T04:27:06.127Z,8.66
2022-09-25T04:32:45.939Z,8.64
2022-09-25T04:38:08.266Z,8.71
2022-09-25T04:43:31.808Z,8.66
2022-09-25T04:48:53.799Z,8.77
2022-09-25T04:54:16.857Z,8.89
2022-09-25T04:59:38.787Z,8.90
2022-09-25T05:05:00.617Z,8.84
2022-09-25T05:10:24.302Z,8.74
2022-09-25T05:15:46.002Z,8.83
2022-09-25T05:21:08.445Z,8.85
2022-09-25T05:26:30.697Z,8.86
2022-09-25T05:31:53.822Z,8.84
2022-09-25T05:37:16.429Z,8.85
2022-09-25T05:42:46.769Z,8.66
2022-09-25T05:48:11.488Z,8.47
2022-09-25T05:53:35.996Z,8.26
2022-09-25T05:58:59.187Z,8.26
2022-09-25T06:04:24.315Z,8.59
2022-09-25T06:09:46.977Z,8.88
2022-09-25T06:15:11.658Z,9.35
2022-09-25T06:20:33.518Z,10.16
2022-09-25T06:26:07.729Z,10.85
2022-09-25T06:31:29.935Z,10.94
2022-09-25T06:36:52.117Z,10.73
2022-09-25T06:42:14.305Z,10.60
2022-09-25T06:47:36.297Z,10.30
2022-09-25T06:53:01.683Z,10.13
2022-09-25T06:58:25.907Z,9.68
2022-09-25T07:03:49.611Z,9.55
2022-09-25T07:09:11.418Z,9.73
2022-09-25T07:14:34.305Z,9.66
2022-09-25T07:19:56.478Z,9.57
2022-09-25T07:25:18.287Z,9.32
2022-09-25T07:30:40.219Z,9.16
2022-09-25T07:36:01.967Z,9.38
2022-09-25T07:41:24.675Z,9.10
2022-09-25T07:46:54.268Z,9.15
2022-09-25T07:52:19.659Z,9.01
2022-09-25T07:57:44.395Z,8.96
2022-09-25T08:03:06.612Z,9.13
2022-09-25T08:08:34.189Z,9.27
2022-09-25T08:14:01.919Z,9.10
2022-09-25T08:19:25.389Z,9.28
2022-09-25T08:24:49.317Z,9.58
2022-09-25T08:31:50.099Z,9.53
2022-09-25T08:36:18.576Z,9.53
2022-09-25T08:42:02.489Z,10.13
2022-09-25T08:47:45.371Z,10.14
2022-09-25T08:53:24.215Z,9.71
2022-09-25T08:58:54.377Z,10.06
2022-09-25T09:04:19.841Z,10.22
2022-09-25T09:09:48.627Z,10.07
2022-09-25T09:15:39.943Z,10.36
2022-09-25T09:21:28.380Z,10.47
2022-09-25T09:26:56.139Z,10.38
2022-09-25T09:32:27.437Z,10.29
2022-09-25T09:44:37.609Z,10.42
2022-09-25T09:50:29.551Z,10.45
2022-09-25T09:56:00.170Z,10.33
2022-09-25T10:01:41.414Z,10.45
2022-09-25T10:07:11.437Z,10.53
2022-09-25T10:12:37.547Z,10.62
2022-09-25T10:18:07.451Z,10.54
2022-09-25T10:23:42.180Z,10.54
2022-09-25T10:29:24.049Z,10.17
2022-09-25T10:34:54.002Z,10.58
2022-09-25T10:40:34.536Z,10.67
2022-09-25T10:46:13.428Z,10.68
2022-09-25T10:51:35.679Z,10.90
2022-09-25T10:56:58.257Z,10.82
2022-09-25T11:02:38.574Z,11.19
2022-09-25T11:08:04.830Z,11.20
2022-09-25T11:13:37.450Z,11.30
2022-09-25T11:19:13.387Z,11.43
2022-09-25T11:24:47.508Z,11.62
2022-09-25T11:30:33.621Z,11.69
2022-09-25T11:36:07.967Z,11.80
2022-09-25T11:41:36.448Z,11.54
2022-09-25T11:47:10.996Z,11.55
2022-09-25T11:53:06.230Z,11.64
2022-09-25T11:58:58.448Z,11.73
2022-09-25T12:04:41.649Z,11.73
2022-09-25T12:10:20.888Z,11.76
2022-09-25T12:15:46.050Z,11.94
2022-09-25T12:21:20.207Z,11.81
2022-09-25T12:27:14.947Z,11.77
2022-09-25T12:33:14.969Z,11.95
2022-09-25T12:38:44.648Z,12.66
2022-09-25T12:44:27.136Z,12.64
2022-09-25T12:50:04.371Z,12.65
2022-09-25T12:55:55.647Z,12.55
2022-09-25T13:01:41.281Z,12.73
2022-09-25T13:07:15.209Z,12.82
2022-09-25T13:12:38.319Z,12.82
2022-09-25T13:18:00.839Z,12.70
2022-09-25T13:23:34.290Z,12.87
2022-09-25T13:29:15.537Z,12.88
2022-09-25T13:34:42.762Z,12.91
2022-09-25T13:40:43.867Z,12.96
2022-09-25T13:46:36.458Z,12.62
2022-09-25T13:52:19.618Z,12.83
2022-09-25T13:58:00.497Z,13.00
2022-09-25T14:03:44.589Z,12.65
2022-09-25T14:09:22.775Z,12.37
2022-09-25T14:15:20.724Z,12.27
2022-09-25T14:20:49.459Z,12.31
2022-09-25T14:26:29.466Z,12.11
2022-09-25T14:32:42.817Z,12.08
2022-09-25T14:38:26.039Z,11.65
2022-09-25T14:44:09.135Z,11.01
2022-09-25T14:49:39.861Z,10.63
2022-09-25T14:55:07.622Z,10.35
2022-09-25T15:06:25.856Z,10.08
2022-09-25T15:11:56.396Z,9.62
2022-09-25T15:17:24.916Z,9.57
2022-09-25T15:23:06.607Z,9.49
2022-09-25T15:28:31.988Z,9.53
2022-09-25T15:34:13.353Z,9.12
2022-09-25T15:39:42.258Z,9.62
2022-09-25T15:45:31.651Z,9.57
2022-09-25T15:50:54.907Z,9.46
2022-09-25T15:56:24.849Z,9.41
2022-09-25T16:02:05.111Z,9.33
2022-09-25T16:07:34.866Z,9.22
2022-09-25T16:12:56.830Z,9.03
2022-09-25T16:18:25.008Z,8.86
2022-09-25T16:23:57.319Z,8.78
2022-09-25T16:29:23.858Z,8.72
2022-09-25T16:34:59.454Z,8.60
2022-09-25T16:40:25.454Z,8.51
2022-09-25T16:46:15.805Z,8.41
2022-09-25T16:51:46.899Z,8.32
2022-09-25T16:57:10.998Z,7.95
2022-09-25T17:02:42.425Z,8.08
2022-09-25T17:08:31.876Z,8.18
2022-09-25T17:13:54.176Z,7.87
2022-09-25T17:19:19.725Z,7.38
2022-09-25T17:24:42.150Z,7.49
2022-09-25T17:30:07.651Z,7.21
2022-09-25T17:35:34.267Z,7.54
2022-09-25T17:41:05.453Z,7.39
2022-09-25T17:46:27.625Z,7.25
2022-09-25T17:51:50.624Z,7.35
2022-09-25T17:57:12.447Z,7.32
2022-09-25T18:02:35.205Z,7.32
2022-09-25T18:07:56.888Z,7.32
2022-09-25T18:13:22.347Z,7.40
2022-09-25T18:19:04.116Z,7.38
2022-09-25T18:24:26.307Z,7.41
2022-09-25T18:29:47.987Z,7.21
2022-09-25T18:35:10.847Z,7.10
2022-09-25T18:40:33.169Z,7.14
2022-09-25T18:45:57.221Z,7.01
2022-09-25T18:51:19.857Z,6.92
2022-09-25T18:56:42.418Z,6.77
2022-09-25T19:02:04.617Z,6.64
2022-09-25T19:07:28.740Z,6.66
2022-09-25T19:12:51.614Z,6.47
2022-09-25T19:18:14.078Z,6.35
2022-09-25T19:23:36.058Z,6.25
2022-09-25T19:28:58.278Z,6.23
2022-09-25T19:34:20.072Z,6.16
2022-09-25T19:40:00.598Z,6.14
2022-09-25T19:45:22.847Z,6.06
2022-09-25T19:50:44.787Z,6.13
2022-09-25T19:56:07.616Z,6.16
2022-09-25T20:01:30.815Z,6.12
2022-09-25T20:06:52.758Z,6.15
2022-09-25T20:12:14.596Z,6.20
2022-09-25T20:17:36.469Z,6.21
2022-09-25T20:22:59.449Z,5.94
2022-09-25T20:28:56.313Z,5.76
2022-09-25T20:40:21.982Z,5.88
2022-09-25T20:45:44.167Z,5.70
2022-09-25T20:51:09.469Z,5.56
2022-09-25T20:56:33.248Z,5.56
2022-09-25T21:01:55.193Z,5.20
2022-09-25T21:07:21.149Z,5.18
2022-09-25T21:12:43.676Z,5.15
2022-09-25T21:18:05.847Z,5.20
2022-09-25T21:23:28.816Z,4.80
2022-09-25T21:28:53.087Z,4.74
2022-09-25T21:34:19.516Z,4.69
2022-09-25T21:39:41.971Z,4.92
2022-09-25T21:45:06.928Z,4.96
2022-09-25T21:50:29.158Z,4.76
2022-09-25T21:56:07.307Z,4.48
2022-09-25T22:01:33.610Z,4.41
2022-09-25T22:07:00.658Z,4.45
2022-09-25T22:12:23.018Z,4.41
2022-09-25T22:17:44.879Z,4.41
2022-09-25T22:23:12.239Z,4.20
2022-09-25T22:28:38.348Z,4.51
2022-09-25T22:34:04.030Z,4.30
2022-09-25T22:39:26.388Z,4.27
2022-09-25T22:44:48.412Z,4.51
2022-09-25T22:50:10.758Z,4.20
2022-09-25T22:55:34.298Z,4.34
2022-09-25T23:00:57.205Z,4.21
2022-09-25T23:06:19.548Z,4.52
2022-09-25T23:11:42.389Z,4.74
2022-09-25T23:17:04.665Z,4.54
2022-09-25T23:22:27.002Z,4.70
2022-09-25T23:27:49.387Z,4.98
2022-09-25T23:33:12.137Z,4.88
2022-09-25T23:38:34.823Z,5.14
2022-09-25T23:43:51.627Z,5.13
2022-09-25T23:49:14.489Z,5.19
2022-09-25T23:54:37.317Z,5.27
2022-09-25T23:59:59.135Z,5.30
